Time;durP1;ratioP1;P1;durP2;ratioP2;P2;SDS_P1;SDS_P2;PMS_P1;PMS_P2;Temp;Humidity;BMP_temperature;BMP_pressure;BME280_temperature;BME280_humidity;BME280_pressure;Samples;Min_cycle;Max_cycle;Signal;HPM_P1;HPM_P2
2021/12/25 00:00:16;;;;;;;6.97;2.67;;;1.30;99.90;;;;;;5087632;28;20068;-57
2021/12/25 00:02:43;;;;;;;7.30;3.00;;;1.20;99.90;;;;;;5065134;28;20043;-54
2021/12/25 00:05:10;;;;;;;8.13;2.95;;;1.20;99.90;;;;;;5065985;28;20084;-58
2021/12/25 00:07:36;;;;;;;8.05;2.47;;;1.20;99.90;;;;;;5061819;28;20045;-55
2021/12/25 00:10:04;;;;;;;5.63;2.97;;;1.10;99.90;;;;;;5079036;28;20032;-56
2021/12/25 00:12:30;;;;;;;6.38;2.42;;;1.10;99.90;;;;;;5063489;28;20489;-55
2021/12/25 00:14:56;;;;;;;5.65;2.85;;;1.10;99.90;;;;;;5072570;28;20109;-56
2021/12/25 00:17:22;;;;;;;4.45;1.95;;;1.00;99.90;;;;;;5062653;28;20507;-56
2021/12/25 00:19:48;;;;;;;5.87;1.93;;;1.00;99.90;;;;;;5074630;28;20239;-55
2021/12/25 00:22:14;;;;;;;8.07;2.45;;;1.00;99.90;;;;;;5070724;28;20040;-57
2021/12/25 00:24:43;;;;;;;3.72;1.92;;;1.00;99.90;;;;;;5065053;28;20051;-55
2021/12/25 00:27:35;;;;;;;6.93;1.80;;;1.00;99.90;;;;;;5075776;28;20448;-57
2021/12/25 00:35:06;;;;;;;7.65;3.47;;;0.90;99.90;;;;;;5062345;28;20044;-56
2021/12/25 00:37:31;;;;;;;7.35;2.60;;;0.80;99.90;;;;;;5078718;28;20036;-55
2021/12/25 00:39:57;;;;;;;4.97;2.10;;;0.80;99.90;;;;;;5058553;28;20037;-57
2021/12/25 00:42:23;;;;;;;9.80;2.47;;;0.90;99.90;;;;;;5060504;28;20032;-54
2021/12/25 00:44:49;;;;;;;3.50;2.37;;;0.80;99.90;;;;;;5073684;28;20378;-55
2021/12/25 00:47:15;;;;;;;10.80;2.08;;;0.80;99.90;;;;;;5067370;28;20056;-56
2021/12/25 00:49:40;;;;;;;4.07;1.53;;;0.80;99.90;;;;;;5061768;28;20032;-55
2021/12/25 00:52:06;;;;;;;6.07;1.30;;;0.80;99.90;;;;;;5072500;28;20063;-57
2021/12/25 00:54:32;;;;;;;4.63;1.30;;;0.80;99.90;;;;;;5065582;28;20147;-57
2021/12/25 00:56:58;;;;;;;6.85;1.75;;;0.80;99.90;;;;;;5062547;28;20044;-56
2021/12/25 00:59:23;;;;;;;5.32;0.90;;;0.80;99.90;;;;;;5075031;28;20036;-54
2021/12/25 01:01:50;;;;;;;2.73;0.90;;;0.70;99.90;;;;;;5078308;28;20024;-58
2021/12/25 01:04:15;;;;;;;8.82;0.82;;;0.80;99.90;;;;;;5068979;28;20531;-56
2021/12/25 01:06:41;;;;;;;4.03;1.63;;;0.70;99.90;;;;;;5076548;28;20028;-57
2021/12/25 01:09:08;;;;;;;4.77;0.70;;;0.70;99.90;;;;;;5085096;28;20040;-56
2021/12/25 01:11:36;;;;;;;4.15;1.10;;;0.70;99.90;;;;;;5065273;28;20028;-57
2021/12/25 01:14:09;;;;;;;7.30;1.45;;;0.70;99.90;;;;;;5071109;28;20040;-57
2021/12/25 01:29:52;;;;;;;3.42;0.70;;;0.50;99.90;;;;;;5069955;28;20037;-56
2021/12/25 01:32:56;;;;;;;4.90;0.82;;;0.50;99.90;;;;;;5076829;28;20048;-55
2021/12/25 01:36:31;;;;;;;2.42;1.13;;;0.40;99.90;;;;;;5087991;28;20040;-57
2021/12/25 01:41:13;;;;;;;4.25;0.85;;;0.40;99.90;;;;;;5069638;28;20505;-58
2021/12/25 01:49:08;;;;;;;6.30;2.00;;;0.30;99.90;;;;;;5066298;28;20049;-56
2021/12/25 01:51:33;;;;;;;4.13;0.50;;;0.30;99.90;;;;;;5070120;28;20543;-53
2021/12/25 01:53:59;;;;;;;4.50;0.60;;;0.20;99.90;;;;;;5088106;28;20122;-54
2021/12/25 01:56:25;;;;;;;3.40;0.60;;;0.20;99.90;;;;;;5073729;28;20071;-57
2021/12/25 01:58:51;;;;;;;3.67;0.43;;;0.20;99.90;;;;;;5087740;28;20031;-55
2021/12/25 02:01:17;;;;;;;7.63;1.77;;;0.20;99.90;;;;;;5089194;28;20079;-56
2021/12/25 02:03:43;;;;;;;5.45;0.70;;;0.10;99.90;;;;;;5073208;28;20071;-58
2021/12/25 02:06:11;;;;;;;6.53;0.73;;;0.10;99.90;;;;;;5070288;28;20052;-57
2021/12/25 02:08:40;;;;;;;3.92;1.05;;;0.10;99.90;;;;;;5084850;28;20294;-57
2021/12/25 02:11:07;;;;;;;3.47;0.45;;;0.00;99.90;;;;;;5089465;28;20032;-57
2021/12/25 02:13:33;;;;;;;4.75;0.88;;;0.00;99.90;;;;;;5076429;28;20036;-55
2021/12/25 02:16:01;;;;;;;3.10;0.77;;;-0.10;99.90;;;;;;5069617;28;20458;-57
2021/12/25 02:21:07;;;;;;;7.82;0.68;;;-0.20;99.90;;;;;;5089450;28;20515;-53
2021/12/25 02:23:32;;;;;;;5.35;1.25;;;-0.20;99.90;;;;;;5078201;28;20041;-57
2021/12/25 02:25:58;;;;;;;3.33;0.87;;;-0.20;99.90;;;;;;5085213;28;20308;-56
2021/12/25 02:28:26;;;;;;;4.90;0.70;;;-0.30;99.90;;;;;;5079525;28;20045;-57
2021/12/25 02:30:56;;;;;;;5.47;0.50;;;-0.40;99.90;;;;;;5069716;28;20040;-57
2021/12/25 02:33:23;;;;;;;2.50;0.40;;;-0.40;99.90;;;;;;5077932;28;20067;-55
2021/12/25 02:35:50;;;;;;;7.05;0.60;;;-0.40;99.90;;;;;;5076639;28;20317;-55
2021/12/25 02:38:16;;;;;;;3.22;0.75;;;-0.40;99.90;;;;;;5076676;28;20051;-57
2021/12/25 02:40:41;;;;;;;2.60;0.60;;;-0.50;99.90;;;;;;5088004;28;20413;-57
2021/12/25 02:43:07;;;;;;;6.47;0.57;;;-0.50;99.90;;;;;;5087921;28;20032;-57
2021/12/25 02:45:33;;;;;;;2.60;0.47;;;-0.50;99.90;;;;;;5081381;28;20032;-54
2021/12/25 02:48:07;;;;;;;2.30;0.50;;;-0.60;99.90;;;;;;5079136;28;20064;-58
2021/12/25 02:50:33;;;;;;;2.67;0.60;;;-0.60;99.90;;;;;;5069590;28;20036;-58
2021/12/25 02:53:02;;;;;;;3.13;0.50;;;-0.70;99.90;;;;;;5072168;28;20080;-56
2021/12/25 02:55:29;;;;;;;1.67;0.63;;;-0.70;99.90;;;;;;5091171;28;20281;-57
2021/12/25 02:57:55;;;;;;;3.70;0.50;;;-0.70;99.90;;;;;;5090816;28;20040;-57
2021/12/25 03:00:23;;;;;;;;;;;-0.80;99.90;;;;;;5071821;28;20041;-56
2021/12/25 03:02:49;;;;;;;4.75;0.55;;;-0.80;99.90;;;;;;5072915;28;19925;-59
2021/12/25 03:05:15;;;;;;;19.88;2.55;;;-0.80;99.90;;;;;;5087555;28;20111;-57
2021/12/25 03:07:40;;;;;;;2.03;0.60;;;-0.90;99.90;;;;;;5058467;28;20090;-54
2021/12/25 03:10:08;;;;;;;2.53;0.50;;;-0.90;99.90;;;;;;5090428;28;20071;-58
2021/12/25 03:12:36;;;;;;;3.80;0.40;;;-1.00;99.90;;;;;;5083666;28;20401;-57
2021/12/25 03:15:13;;;;;;;3.67;0.40;;;-1.00;99.90;;;;;;5088985;28;20221;-59
2021/12/25 03:17:39;;;;;;;4.90;0.60;;;-1.00;99.90;;;;;;5066940;28;20048;-58
2021/12/25 03:20:07;;;;;;;2.92;0.47;;;-1.10;99.90;;;;;;5094328;28;20496;-59
2021/12/25 03:22:32;;;;;;;5.05;0.93;;;-1.10;99.90;;;;;;5093947;28;20096;-57
2021/12/25 03:24:58;;;;;;;1.40;0.43;;;-1.10;99.90;;;;;;5084037;28;20446;-58
2021/12/25 03:27:24;;;;;;;1.07;0.30;;;-1.10;99.90;;;;;;5073912;28;20366;-58
2021/12/25 03:29:49;;;;;;;3.97;0.97;;;-1.20;99.90;;;;;;5083853;28;20051;-57
2021/12/25 03:32:15;;;;;;;2.87;0.40;;;-1.20;99.90;;;;;;5091774;28;20304;-58
2021/12/25 03:34:41;;;;;;;0.63;0.45;;;-1.20;99.90;;;;;;5078834;28;20282;-57
2021/12/25 03:37:07;;;;;;;2.87;0.40;;;-1.30;99.90;;;;;;5072611;28;20051;-57
2021/12/25 03:39:33;;;;;;;2.95;0.35;;;-1.30;99.90;;;;;;5080337;28;20051;-58
2021/12/25 03:41:58;;;;;;;4.50;0.47;;;-1.30;99.90;;;;;;5091926;28;20062;-57
2021/12/25 03:44:28;;;;;;;3.87;0.40;;;-1.40;99.90;;;;;;5083726;28;20082;-56
2021/12/25 03:46:58;;;;;;;2.58;0.30;;;-1.40;99.90;;;;;;5083788;28;20048;-58
2021/12/25 03:53:08;;;;;;;5.28;1.05;;;-1.40;99.90;;;;;;5090040;28;20115;-55
2021/12/25 03:57:56;;;;;;;0.63;0.30;;;-1.60;99.90;;;;;;5083258;28;20056;-57
2021/12/25 04:00:28;;;;;;;3.88;0.30;;;-1.60;99.90;;;;;;5082457;28;20047;-58
2021/12/25 04:02:58;;;;;;;4.95;0.50;;;-1.70;99.90;;;;;;5072024;28;20036;-58
2021/12/25 04:05:29;;;;;;;0.70;0.20;;;-1.70;99.90;;;;;;5082302;28;20051;-58
2021/12/25 04:10:20;;;;;;;1.43;0.50;;;-1.80;99.90;;;;;;5083447;28;20493;-56
2021/12/25 04:12:45;;;;;;;3.13;0.40;;;-1.80;99.90;;;;;;5091386;28;20032;-56
2021/12/25 04:15:11;;;;;;;1.27;0.40;;;-1.80;99.90;;;;;;5080428;28;20250;-57
2021/12/25 04:17:37;;;;;;;0.70;0.40;;;-1.90;99.90;;;;;;5086246;28;20541;-57
2021/12/25 04:20:04;;;;;;;0.80;0.30;;;-1.90;99.90;;;;;;5081858;28;20179;-57
2021/12/25 04:22:39;;;;;;;2.17;0.73;;;-1.90;99.90;;;;;;5070007;28;20052;-57
2021/12/25 04:25:05;;;;;;;0.93;0.50;;;-1.90;99.90;;;;;;5077592;28;20131;-58
2021/12/25 04:27:31;;;;;;;3.43;0.30;;;-1.90;99.90;;;;;;5090902;28;20123;-59
2021/12/25 04:30:16;;;;;;;1.73;0.45;;;-1.90;99.90;;;;;;5076686;28;20036;-58
2021/12/25 04:33:25;;;;;;;0.52;0.30;;;-2.00;99.90;;;;;;5071242;28;20051;-58
2021/12/25 05:05:39;;;;;;;0.63;0.30;;;-2.30;99.90;;;;;;5085725;28;20044;-57
2021/12/25 05:08:05;;;;;;;2.15;0.30;;;-2.30;99.90;;;;;;5089830;28;20485;-54
2021/12/25 05:10:30;;;;;;;2.00;0.32;;;-2.30;99.90;;;;;;5077020;28;20055;-55
2021/12/25 05:12:56;;;;;;;0.67;0.30;;;-2.30;99.90;;;;;;5078045;28;20497;-55
2021/12/25 05:15:21;;;;;;;2.63;0.30;;;-2.30;99.90;;;;;;5077999;28;20037;-56
2021/12/25 05:17:47;;;;;;;1.00;0.30;;;-2.40;99.90;;;;;;5070176;28;20036;-55
2021/12/25 05:20:13;;;;;;;1.43;0.50;;;-2.30;99.90;;;;;;5079098;28;20036;-57
2021/12/25 05:22:38;;;;;;;1.27;0.40;;;-2.40;99.90;;;;;;5073739;28;20043;-58
2021/12/25 05:25:04;;;;;;;5.20;0.60;;;-2.40;99.90;;;;;;5082465;28;20413;-58
2021/12/25 05:27:30;;;;;;;1.83;0.90;;;-2.40;99.90;;;;;;5069786;28;20055;-54
2021/12/25 05:29:55;;;;;;;5.93;0.60;;;-2.40;99.90;;;;;;5076101;28;20289;-57
2021/12/25 05:32:21;;;;;;;0.50;0.33;;;-2.40;99.90;;;;;;5085987;28;20068;-58
2021/12/25 05:34:47;;;;;;;2.27;0.47;;;-2.40;99.90;;;;;;5072548;28;20078;-58
2021/12/25 05:37:14;;;;;;;1.75;0.30;;;-2.40;99.90;;;;;;5089371;28;20047;-57
2021/12/25 05:39:42;;;;;;;2.30;0.93;;;-2.40;99.90;;;;;;5087320;28;20120;-56
2021/12/25 05:42:08;;;;;;;1.95;0.80;;;-2.40;99.90;;;;;;5070271;28;20047;-57
2021/12/25 05:44:34;;;;;;;0.90;0.40;;;-2.40;99.90;;;;;;5087911;28;20028;-57
2021/12/25 05:47:00;;;;;;;2.67;0.30;;;-2.40;99.90;;;;;;5069855;28;20063;-58
2021/12/25 05:49:26;;;;;;;2.13;0.30;;;-2.40;99.90;;;;;;5070044;28;20330;-57
2021/12/25 05:51:52;;;;;;;0.43;0.30;;;-2.40;99.90;;;;;;5087075;28;20037;-57
2021/12/25 05:54:18;;;;;;;5.07;1.67;;;-2.40;99.90;;;;;;5089727;28;20040;-56
2021/12/25 05:56:43;;;;;;;4.18;1.95;;;-2.40;99.90;;;;;;5071869;28;20267;-58
2021/12/25 05:59:09;;;;;;;2.17;0.30;;;-2.50;99.90;;;;;;5070139;28;20416;-59
2021/12/25 06:01:35;;;;;;;4.17;0.30;;;-2.50;99.90;;;;;;5073799;28;20051;-57
2021/12/25 06:04:00;;;;;;;0.60;0.20;;;-2.50;99.90;;;;;;5081121;28;20049;-57
2021/12/25 06:06:26;;;;;;;2.20;0.20;;;-2.50;99.90;;;;;;5070487;28;20052;-57
2021/12/25 06:08:52;;;;;;;1.87;0.30;;;-2.50;99.90;;;;;;5069672;28;20040;-58
2021/12/25 06:11:18;;;;;;;1.27;0.28;;;-2.50;99.90;;;;;;5079779;28;20109;-58
2021/12/25 06:13:55;;;;;;;0.57;0.30;;;-2.50;99.90;;;;;;5079233;28;20036;-57
2021/12/25 06:16:22;;;;;;;1.17;0.60;;;-2.60;99.90;;;;;;5080229;28;20044;-57
2021/12/25 06:18:48;;;;;;;1.85;0.30;;;-2.60;99.90;;;;;;5089698;28;20127;-58
2021/12/25 06:21:13;;;;;;;1.20;0.25;;;-2.60;99.90;;;;;;5079982;28;20140;-57
2021/12/25 06:23:39;;;;;;;1.73;0.43;;;-2.70;99.90;;;;;;5078407;28;20036;-58
2021/12/25 06:26:04;;;;;;;0.67;0.30;;;-2.70;99.90;;;;;;5081277;28;20079;-57
2021/12/25 06:28:30;;;;;;;2.53;0.23;;;-2.70;99.90;;;;;;5072748;28;20508;-56
2021/12/25 06:30:56;;;;;;;4.77;0.30;;;-2.70;99.90;;;;;;5075883;28;20166;-57
2021/12/25 06:33:21;;;;;;;0.93;0.27;;;-2.70;99.90;;;;;;5065237;28;20400;-54
2021/12/25 06:35:47;;;;;;;2.10;0.30;;;-2.70;99.90;;;;;;5087034;28;20033;-59
2021/12/25 06:38:13;;;;;;;0.83;0.30;;;-2.70;99.90;;;;;;5071720;28;20127;-56
2021/12/25 06:40:38;;;;;;;3.80;0.40;;;-2.80;99.90;;;;;;5076475;28;20036;-58
2021/12/25 06:43:04;;;;;;;4.68;0.30;;;-2.80;99.90;;;;;;5089165;28;20068;-57
2021/12/25 06:45:30;;;;;;;0.80;0.30;;;-2.80;99.90;;;;;;5073958;28;20314;-59
2021/12/25 06:47:56;;;;;;;1.10;0.52;;;-2.90;99.90;;;;;;5086195;28;20047;-57
2021/12/25 06:50:23;;;;;;;2.60;0.30;;;-2.90;99.90;;;;;;5073361;28;20139;-57
2021/12/25 06:52:48;;;;;;;0.55;0.30;;;-2.90;99.90;;;;;;5091701;28;20040;-55
2021/12/25 06:55:14;;;;;;;1.20;0.20;;;-2.90;99.90;;;;;;5091864;28;20492;-55
2021/12/25 06:57:48;;;;;;;3.10;0.40;;;-2.90;99.90;;;;;;5075089;28;20119;-57
2021/12/25 07:00:15;;;;;;;1.10;0.20;;;-2.90;99.90;;;;;;5081265;28;20542;-56
2021/12/25 07:02:40;;;;;;;;;;;-2.90;99.90;;;;;;5089086;28;20202;-54
2021/12/25 07:05:06;;;;;;;2.30;0.30;;;-2.90;99.90;;;;;;5092565;28;19923;-57
2021/12/25 07:07:32;;;;;;;3.75;0.40;;;-3.00;99.90;;;;;;5075992;28;20400;-57
2021/12/25 07:09:57;;;;;;;0.80;0.40;;;-3.00;99.90;;;;;;5087912;28;20039;-56
2021/12/25 07:12:25;;;;;;;2.03;0.80;;;-3.00;99.90;;;;;;5096741;28;20032;-58
2021/12/25 07:14:51;;;;;;;2.67;1.45;;;-3.00;99.90;;;;;;5091487;28;20457;-57
2021/12/25 07:17:16;;;;;;;0.40;0.20;;;-3.00;99.90;;;;;;5094912;28;20032;-58
2021/12/25 07:19:42;;;;;;;3.25;0.30;;;-3.00;99.90;;;;;;5081337;28;20481;-58
2021/12/25 07:22:08;;;;;;;3.50;0.20;;;-3.10;99.90;;;;;;5072262;28;20039;-57
2021/12/25 07:24:33;;;;;;;2.60;0.33;;;-3.10;99.90;;;;;;5074888;28;20033;-55
2021/12/25 07:27:05;;;;;;;0.38;0.22;;;-3.10;99.90;;;;;;5072123;28;20037;-55
2021/12/25 07:29:31;;;;;;;0.88;0.30;;;-3.10;99.90;;;;;;5079127;28;20642;-56
2021/12/25 07:31:57;;;;;;;2.38;0.30;;;-3.10;99.90;;;;;;5091960;28;20039;-56
2021/12/25 07:34:22;;;;;;;1.58;0.30;;;-3.10;99.90;;;;;;5084155;28;20028;-55
2021/12/25 07:36:48;;;;;;;2.83;0.33;;;-3.10;99.90;;;;;;5091871;28;20054;-54
2021/12/25 07:39:13;;;;;;;0.47;0.27;;;-3.10;99.90;;;;;;5087545;28;20115;-56
2021/12/25 07:41:39;;;;;;;1.40;0.20;;;-3.10;99.90;;;;;;5072162;28;20044;-54
2021/12/25 07:44:05;;;;;;;1.43;0.40;;;-3.10;99.90;;;;;;5084801;28;20051;-54
2021/12/25 07:46:30;;;;;;;1.23;0.30;;;-3.10;99.90;;;;;;5091329;28;20071;-56
2021/12/25 07:48:58;;;;;;;0.83;0.30;;;-3.10;99.90;;;;;;5080738;28;20416;-56
2021/12/25 07:51:24;;;;;;;2.00;0.30;;;-3.10;99.90;;;;;;5072180;28;20123;-56
2021/12/25 07:53:49;;;;;;;2.00;0.30;;;-3.10;99.90;;;;;;5071988;28;20088;-53
2021/12/25 07:56:15;;;;;;;0.70;0.20;;;-3.10;99.90;;;;;;5071599;28;20075;-53
2021/12/25 07:58:42;;;;;;;7.07;0.93;;;-3.10;99.70;;;;;;5071649;28;20044;-58
2021/12/25 08:01:09;;;;;;;2.38;0.32;;;-3.10;99.80;;;;;;5080992;28;20032;-58
2021/12/25 08:03:35;;;;;;;;;;;-3.10;99.40;;;;;;5088132;28;20412;-56
2021/12/25 08:06:01;;;;;;;3.33;1.35;;;-3.00;99.90;;;;;;5082286;28;19923;-59
2021/12/25 08:08:27;;;;;;;1.33;0.30;;;-2.90;99.90;;;;;;5083542;28;20411;-58
2021/12/25 08:10:52;;;;;;;0.50;0.23;;;-2.80;99.90;;;;;;5074671;28;20037;-57
2021/12/25 08:13:18;;;;;;;1.30;0.17;;;-2.90;99.80;;;;;;5086461;28;20471;-57
2021/12/25 08:15:44;;;;;;;1.10;0.30;;;-2.80;99.60;;;;;;5080001;28;20111;-57
2021/12/25 08:18:10;;;;;;;1.25;0.20;;;-2.60;99.70;;;;;;5084500;28;20459;-56
2021/12/25 08:20:36;;;;;;;0.50;0.30;;;-2.30;99.80;;;;;;5082884;28;20068;-57
2021/12/25 08:23:01;;;;;;;1.55;0.20;;;-2.10;99.00;;;;;;5070176;28;20838;-58
2021/12/25 08:25:27;;;;;;;2.20;0.30;;;-1.90;97.80;;;;;;5069787;28;20116;-58
2021/12/25 08:27:53;;;;;;;1.60;0.20;;;-1.70;97.20;;;;;;5071076;28;20406;-57
2021/12/25 08:30:21;;;;;;;1.52;0.25;;;-1.40;97.10;;;;;;5071247;28;20036;-56
2021/12/25 08:32:47;;;;;;;5.78;0.47;;;-1.40;95.90;;;;;;5066899;28;20036;-57
2021/12/25 08:35:15;;;;;;;1.50;0.30;;;-1.40;96.00;;;;;;5068536;28;20040;-58
2021/12/25 08:37:43;;;;;;;0.43;0.28;;;-1.50;96.10;;;;;;5070577;28;20097;-58
2021/12/25 08:40:11;;;;;;;0.75;0.25;;;-1.60;96.10;;;;;;5071146;28;20090;-57
2021/12/25 08:42:37;;;;;;;0.65;0.35;;;-1.60;96.40;;;;;;5071133;28;20056;-58
2021/12/25 08:45:05;;;;;;;3.13;0.30;;;-1.50;95.90;;;;;;5073474;28;20040;-58
2021/12/25 08:47:36;;;;;;;3.47;0.30;;;-1.30;96.10;;;;;;5087735;28;20044;-58
2021/12/25 08:50:10;;;;;;;0.85;0.22;;;-1.20;96.40;;;;;;5090998;28;20040;-58
2021/12/25 08:52:36;;;;;;;0.95;0.20;;;-0.90;95.80;;;;;;5090800;28;20408;-58
2021/12/25 08:55:03;;;;;;;0.95;0.30;;;-0.80;93.90;;;;;;5084954;28;20041;-56
2021/12/25 08:57:28;;;;;;;6.53;0.43;;;-0.90;93.60;;;;;;5069655;28;20044;-57
2021/12/25 08:59:56;;;;;;;1.43;0.20;;;-1.00;94.20;;;;;;5070253;28;20501;-56
2021/12/25 09:02:23;;;;;;;1.95;0.28;;;-1.00;94.40;;;;;;5069610;28;20275;-58
2021/12/25 09:04:51;;;;;;;2.35;0.40;;;-1.10;94.90;;;;;;5070553;28;20072;-56
2021/12/25 09:07:17;;;;;;;1.73;0.40;;;-0.70;97.00;;;;;;5070220;28;20045;-58
2021/12/25 09:09:42;;;;;;;0.50;0.20;;;-0.10;95.60;;;;;;5070440;28;20029;-58
2021/12/25 09:12:11;;;;;;;55.70;5.50;;;0.60;93.10;;;;;;5070514;28;20040;-55
2021/12/25 09:14:37;;;;;;;6.45;0.75;;;0.70;90.10;;;;;;5069002;28;20056;-57
2021/12/25 09:17:04;;;;;;;0.50;0.20;;;0.80;90.00;;;;;;5073093;28;20544;-56
2021/12/25 09:19:29;;;;;;;;;;;0.80;90.20;;;;;;5081782;28;20035;-58
2021/12/25 09:21:55;;;;;;;107.97;7.13;;;1.30;89.20;;;;;;5069390;28;20348;-59
2021/12/25 09:24:21;;;;;;;5.37;0.30;;;1.90;88.20;;;;;;5070255;28;20044;-58
2021/12/25 09:26:47;;;;;;;1.03;0.30;;;2.10;82.70;;;;;;5073870;28;20433;-53
2021/12/25 09:29:13;;;;;;;;;;;2.40;84.20;;;;;;5070207;28;20032;-57
2021/12/25 09:31:38;;;;;;;0.75;0.20;;;2.60;79.50;;;;;;5081135;28;19919;-57
2021/12/25 09:34:04;;;;;;;0.30;0.20;;;2.60;76.10;;;;;;5071028;28;20040;-59
2021/12/25 09:36:31;;;;;;;0.70;0.20;;;2.50;76.70;;;;;;5075292;28;20036;-57
2021/12/25 09:38:58;;;;;;;1.58;0.20;;;2.40;76.40;;;;;;5070674;28;20048;-55
2021/12/25 09:41:23;;;;;;;0.98;0.20;;;2.60;78.50;;;;;;5082525;28;20043;-56
2021/12/25 09:43:49;;;;;;;4.43;0.37;;;3.30;76.20;;;;;;5074282;28;20393;-54
2021/12/25 09:46:20;;;;;;;4.33;0.20;;;3.90;71.60;;;;;;5083854;28;20104;-55
2021/12/25 09:48:47;;;;;;;1.27;0.20;;;4.10;69.60;;;;;;5072571;28;20041;-59
2021/12/25 09:51:13;;;;;;;7.00;0.30;;;4.80;69.80;;;;;;5078012;28;20071;-59
2021/12/25 09:53:39;;;;;;;3.50;0.40;;;5.10;64.20;;;;;;5074533;28;20048;-58
2021/12/25 09:56:06;;;;;;;0.55;0.20;;;5.80;66.00;;;;;;5073384;28;20370;-59
2021/12/25 09:58:32;;;;;;;0.30;0.20;;;6.20;63.50;;;;;;5063452;28;20044;-57
2021/12/25 10:00:58;;;;;;;1.20;0.20;;;6.20;58.50;;;;;;5070304;28;20039;-58
2021/12/25 10:03:25;;;;;;;;;;;6.10;57.90;;;;;;5073416;28;20060;-60
2021/12/25 10:05:51;;;;;;;1.88;0.20;;;5.60;58.50;;;;;;5075436;28;19924;-58
2021/12/25 10:08:17;;;;;;;;;;;5.10;58.10;;;;;;5072843;28;20492;-58
2021/12/25 10:10:50;;;;;;;1.40;0.20;;;5.10;60.00;;;;;;5074112;28;19967;-59
2021/12/25 10:13:29;;;;;;;1.58;0.20;;;5.70;62.20;;;;;;5055440;28;20043;-59
2021/12/25 10:15:58;;;;;;;1.63;0.20;;;6.50;61.80;;;;;;5070590;28;20653;-58
2021/12/25 10:18:34;;;;;;;1.42;0.20;;;7.20;59.70;;;;;;5069413;28;20040;-59
2021/12/25 10:21:29;;;;;;;1.08;0.20;;;7.50;55.00;;;;;;5071400;28;20058;-58
2021/12/25 10:24:08;;;;;;;3.40;0.20;;;7.40;51.80;;;;;;5069544;28;20036;-55
2021/12/25 10:26:39;;;;;;;1.00;0.20;;;6.60;53.10;;;;;;5067427;28;20070;-59
2021/12/25 10:29:38;;;;;;;4.03;0.20;;;5.60;52.40;;;;;;5070248;28;20076;-59
2021/12/25 10:32:22;;;;;;;0.30;0.20;;;4.80;56.30;;;;;;5059786;28;20056;-60
2021/12/25 10:34:49;;;;;;;0.98;0.30;;;5.20;59.40;;;;;;5069932;28;20043;-60
2021/12/25 10:37:17;;;;;;;2.85;0.20;;;6.00;59.10;;;;;;5068544;28;20557;-58
2021/12/25 10:39:44;;;;;;;1.70;0.30;;;6.80;54.70;;;;;;5070945;28;20037;-58
2021/12/25 10:42:16;;;;;;;1.15;0.20;;;7.50;55.60;;;;;;5072000;28;20028;-59
2021/12/25 10:44:51;;;;;;;1.25;0.20;;;8.40;54.50;;;;;;5089121;28;20040;-60
2021/12/25 10:47:21;;;;;;;3.83;0.75;;;8.70;51.40;;;;;;5093258;28;20028;-62
2021/12/25 10:49:54;;;;;;;2.15;0.45;;;8.90;49.80;;;;;;5084007;28;20492;-61
2021/12/25 10:52:29;;;;;;;0.80;0.30;;;8.60;49.80;;;;;;5091811;28;20462;-60
2021/12/25 10:55:05;;;;;;;1.05;0.30;;;8.10;48.60;;;;;;5077397;28;20068;-60
2021/12/25 10:57:32;;;;;;;1.23;0.10;;;7.30;49.80;;;;;;5083936;28;20477;-58
2021/12/25 10:59:58;;;;;;;1.05;0.20;;;6.50;51.60;;;;;;5071932;28;20105;-58
2021/12/25 11:03:00;;;;;;;1.13;0.20;;;5.90;53.10;;;;;;5072981;28;20040;-59
2021/12/25 11:05:38;;;;;;;1.17;0.20;;;6.30;54.00;;;;;;5028315;28;20405;-55
2021/12/25 11:08:09;;;;;;;1.20;0.20;;;7.00;51.00;;;;;;5073023;28;20044;-57
2021/12/25 11:10:51;;;;;;;1.50;0.30;;;7.40;49.90;;;;;;5071964;28;20037;-57
2021/12/25 11:13:19;;;;;;;0.57;0.20;;;7.40;48.70;;;;;;5071987;28;20033;-57
2021/12/25 11:15:45;;;;;;;2.90;0.47;;;7.70;48.60;;;;;;5065705;28;20048;-57
2021/12/25 11:18:12;;;;;;;1.13;0.30;;;7.50;48.10;;;;;;5070708;28;20382;-60
2021/12/25 11:20:40;;;;;;;0.75;0.20;;;7.80;48.70;;;;;;5054717;28;20040;-60
2021/12/25 11:23:09;;;;;;;1.23;0.20;;;8.60;48.40;;;;;;5071238;28;20052;-60
2021/12/25 11:25:38;;;;;;;3.40;1.58;;;9.30;46.80;;;;;;5071041;28;20041;-60
2021/12/25 11:28:10;;;;;;;0.88;0.30;;;10.00;46.70;;;;;;5079571;28;20120;-59
2021/12/25 11:30:45;;;;;;;0.93;0.40;;;10.70;45.80;;;;;;5079038;28;20043;-60
2021/12/25 11:33:11;;;;;;;0.50;0.10;;;11.40;44.40;;;;;;5081118;28;20043;-60
2021/12/25 11:35:38;;;;;;;1.38;0.30;;;11.90;44.50;;;;;;5089396;28;20036;-61
2021/12/25 11:38:06;;;;;;;1.20;0.20;;;12.50;42.10;;;;;;5088880;28;20040;-59
2021/12/25 11:40:38;;;;;;;0.30;0.10;;;12.70;43.20;;;;;;5058896;28;20044;-60
2021/12/25 11:43:04;;;;;;;0.55;0.30;;;13.00;44.20;;;;;;5076628;28;20070;-58
2021/12/25 11:45:40;;;;;;;0.43;0.13;;;13.40;43.50;;;;;;5090085;28;20505;-60
2021/12/25 11:48:21;;;;;;;1.95;0.28;;;13.40;40.30;;;;;;5083055;28;20072;-60
2021/12/25 11:50:52;;;;;;;1.35;0.20;;;12.70;39.20;;;;;;5073441;28;20129;-58
2021/12/25 11:53:27;;;;;;;1.23;0.20;;;11.50;38.50;;;;;;5080920;28;20036;-58
2021/12/25 11:58:39;;;;;;;2.35;0.20;;;10.60;41.20;;;;;;5078717;28;20123;-59
2021/12/25 12:01:29;;;;;;;1.30;0.20;;;11.10;43.70;;;;;;5090659;28;20044;-57
2021/12/25 12:04:21;;;;;;;0.75;0.10;;;11.70;42.70;;;;;;5081568;28;20044;-59
2021/12/25 12:06:47;;;;;;;1.38;0.20;;;12.40;41.50;;;;;;5071335;28;20041;-59
2021/12/25 12:09:18;;;;;;;1.30;0.20;;;12.80;39.70;;;;;;5074297;28;20044;-56
2021/12/25 12:11:49;;;;;;;0.60;0.10;;;12.40;38.60;;;;;;5071408;28;20032;-54
2021/12/25 12:14:21;;;;;;;1.00;0.40;;;12.20;40.50;;;;;;5083313;28;20051;-57
2021/12/25 12:17:19;;;;;;;0.60;0.10;;;12.80;41.20;;;;;;5089954;28;20048;-56
2021/12/25 12:19:47;;;;;;;1.35;0.10;;;13.30;39.00;;;;;;5087790;28;20076;-59
2021/12/25 12:22:54;;;;;;;1.35;0.40;;;14.00;40.80;;;;;;5090770;28;20039;-57
2021/12/25 12:25:20;;;;;;;1.95;0.15;;;14.10;39.60;;;;;;5069427;28;20055;-58
2021/12/25 12:27:56;;;;;;;0.90;0.22;;;14.40;38.10;;;;;;5070619;28;20063;-57
2021/12/25 12:30:31;;;;;;;1.58;0.20;;;14.60;39.10;;;;;;5076421;28;20439;-55
2021/12/25 12:33:03;;;;;;;0.95;0.20;;;14.50;39.10;;;;;;5091504;28;20127;-60
2021/12/25 12:35:36;;;;;;;1.23;0.20;;;14.80;39.30;;;;;;5086155;28;20044;-60
2021/12/25 12:38:27;;;;;;;1.35;0.20;;;14.80;38.40;;;;;;5088814;28;20047;-58
2021/12/25 12:41:13;;;;;;;1.85;0.55;;;14.80;37.30;;;;;;5051113;28;20514;-60
2021/12/25 12:44:03;;;;;;;0.55;0.17;;;14.80;37.60;;;;;;5059499;28;20046;-58
2021/12/25 12:46:51;;;;;;;1.17;0.20;;;14.40;37.50;;;;;;5091284;28;20075;-57
2021/12/25 12:49:32;;;;;;;2.20;0.30;;;14.60;37.50;;;;;;5080661;28;20040;-58
2021/12/25 12:52:09;;;;;;;1.08;0.20;;;15.00;38.70;;;;;;5070543;28;20063;-59
2021/12/25 12:54:54;;;;;;;1.48;0.20;;;15.00;37.80;;;;;;5080856;28;20058;-57
2021/12/25 12:57:24;;;;;;;0.73;0.10;;;15.40;37.10;;;;;;5071732;28;20047;-58
2021/12/25 13:00:08;;;;;;;3.00;0.20;;;15.10;37.70;;;;;;5070697;28;20040;-57
2021/12/25 13:02:47;;;;;;;0.65;0.20;;;15.30;37.70;;;;;;5069283;28;20037;-58
2021/12/25 13:05:14;;;;;;;0.55;0.20;;;15.40;37.80;;;;;;5062708;28;20032;-59
2021/12/25 13:07:43;;;;;;;0.57;0.20;;;15.30;36.60;;;;;;5064169;28;20050;-57
2021/12/25 13:10:20;;;;;;;0.68;0.10;;;15.40;37.00;;;;;;5065661;28;20634;-56
2021/12/25 13:12:49;;;;;;;1.40;0.30;;;15.30;37.80;;;;;;5073714;28;20091;-57
2021/12/25 13:15:18;;;;;;;4.57;0.20;;;15.30;36.60;;;;;;5070669;28;20072;-57
2021/12/25 13:18:05;;;;;;;1.58;0.20;;;15.20;36.20;;;;;;5070039;28;20516;-60
2021/12/25 13:20:45;;;;;;;4.30;0.60;;;14.90;36.60;;;;;;5080020;28;20040;-60
2021/12/25 13:23:24;;;;;;;0.60;0.15;;;14.90;37.40;;;;;;5062574;28;20044;-60
2021/12/25 13:26:04;;;;;;;1.20;0.10;;;14.30;36.00;;;;;;5069897;28;20033;-59
2021/12/25 13:28:33;;;;;;;1.63;0.15;;;14.20;36.70;;;;;;5065426;28;20041;-60
2021/12/25 13:31:05;;;;;;;1.17;0.10;;;14.20;37.70;;;;;;5069519;28;20032;-60
2021/12/25 13:33:34;;;;;;;4.03;0.40;;;14.50;38.60;;;;;;5066825;28;20116;-58
2021/12/25 13:36:09;;;;;;;0.80;0.15;;;14.50;37.80;;;;;;5068472;28;20182;-57
2021/12/25 13:38:49;;;;;;;1.00;0.30;;;14.50;37.90;;;;;;5069970;28;20044;-58
2021/12/25 13:41:26;;;;;;;5.28;0.32;;;14.00;37.20;;;;;;5068999;28;20119;-58
2021/12/25 13:44:05;;;;;;;2.50;0.20;;;13.40;37.60;;;;;;5070198;28;20048;-58
2021/12/25 13:46:44;;;;;;;2.13;0.10;;;12.80;37.50;;;;;;5069735;28;20040;-57
2021/12/25 13:49:34;;;;;;;1.10;0.20;;;12.40;37.10;;;;;;5078737;28;20397;-58
2021/12/25 13:52:13;;;;;;;2.28;0.40;;;11.70;37.20;;;;;;5068359;28;20047;-58
2021/12/25 13:54:42;;;;;;;1.58;0.35;;;11.40;39.40;;;;;;5069778;28;20493;-59
2021/12/25 13:57:09;;;;;;;3.42;0.20;;;11.00;38.90;;;;;;5073177;28;20382;-58
2021/12/25 13:59:35;;;;;;;1.77;0.17;;;11.00;40.30;;;;;;5073092;28;20282;-58
2021/12/25 14:02:14;;;;;;;2.25;0.20;;;10.50;39.30;;;;;;5070876;28;20040;-59
2021/12/25 14:04:42;;;;;;;1.35;0.25;;;9.80;39.60;;;;;;5070673;28;20482;-59
2021/12/25 14:07:10;;;;;;;0.68;0.20;;;8.60;39.30;;;;;;5076173;28;20527;-61
2021/12/25 14:09:35;;;;;;;0.77;0.13;;;7.70;41.00;;;;;;5080462;28;20036;-61
2021/12/25 14:12:03;;;;;;;1.80;0.20;;;7.00;42.20;;;;;;5081644;28;20403;-59
2021/12/25 14:14:30;;;;;;;2.13;0.20;;;6.40;43.60;;;;;;5069882;28;20109;-58